sensor_id;sensor_type;location;lat;lon;timestamp;P1;durP1;ratioP1;P2;durP2;ratioP2
38581;SDS011;24349;53.720;10.014;2022-09-17T00:01:06;24.52;;;4.55;;
38581;SDS011;24349;53.720;10.014;2022-09-17T00:03:33;22.17;;;4.35;;
38581;SDS011;24349;53.720;10.014;2022-09-17T00:06:00;30.38;;;4.68;;
38581;SDS011;24349;53.720;10.014;2022-09-17T00:08:27;25.60;;;4.10;;
38581;SDS011;24349;53.720;10.014;2022-09-17T00:10:53;27.63;;;4.43;;
38581;SDS011;24349;53.720;10.014;2022-09-17T00:13:19;21.58;;;4.05;;
38581;SDS011;24349;53.720;10.014;2022-09-17T00:15:45;30.88;;;4.88;;
38581;SDS011;24349;53.720;10.014;2022-09-17T00:18:11;20.17;;;4.05;;
38581;SDS011;24349;53.720;10.014;2022-09-17T00:20:39;21.75;;;4.53;;
38581;SDS011;24349;53.720;10.014;2022-09-17T00:23:06;24.65;;;4.60;;
38581;SDS011;24349;53.720;10.014;2022-09-17T00:25:32;26.83;;;4.15;;
38581;SDS011;24349;53.720;10.014;2022-09-17T00:27:58;28.95;;;4.75;;
38581;SDS011;24349;53.720;10.014;2022-09-17T00:30:24;22.63;;;4.20;;
38581;SDS011;24349;53.720;10.014;2022-09-17T00:32:50;28.20;;;4.10;;
38581;SDS011;24349;53.720;10.014;2022-09-17T00:35:17;28.65;;;4.78;;
38581;SDS011;24349;53.720;10.014;2022-09-17T00:37:43;22.38;;;3.63;;
38581;SDS011;24349;53.720;10.014;2022-09-17T00:40:09;27.55;;;4.22;;
38581;SDS011;24349;53.720;10.014;2022-09-17T00:42:34;21.90;;;3.63;;
38581;SDS011;24349;53.720;10.014;2022-09-17T00:45:00;24.15;;;4.05;;
38581;SDS011;24349;53.720;10.014;2022-09-17T00:47:34;18.80;;;4.05;;
38581;SDS011;24349;53.720;10.014;2022-09-17T00:52:37;21.92;;;4.63;;
38581;SDS011;24349;53.720;10.014;2022-09-17T00:55:12;29.08;;;4.75;;
38581;SDS011;24349;53.720;10.014;2022-09-17T00:57:45;20.23;;;3.58;;
38581;SDS011;24349;53.720;10.014;2022-09-17T01:00:13;27.30;;;4.05;;
38581;SDS011;24349;53.720;10.014;2022-09-17T01:02:41;21.98;;;4.30;;
38581;SDS011;24349;53.720;10.014;2022-09-17T01:05:07;23.02;;;3.58;;
38581;SDS011;24349;53.720;10.014;2022-09-17T01:07:43;20.65;;;4.15;;
38581;SDS011;24349;53.720;10.014;2022-09-17T01:10:57;18.83;;;3.72;;
38581;SDS011;24349;53.720;10.014;2022-09-17T01:16:32;24.85;;;4.38;;
38581;SDS011;24349;53.720;10.014;2022-09-17T01:45:51;14.80;;;3.75;;
38581;SDS011;24349;53.720;10.014;2022-09-17T01:48:34;18.00;;;3.58;;
38581;SDS011;24349;53.720;10.014;2022-09-17T01:51:05;20.27;;;3.25;;
38581;SDS011;24349;53.720;10.014;2022-09-17T01:53:40;18.35;;;4.07;;
38581;SDS011;24349;53.720;10.014;2022-09-17T01:56:11;17.38;;;4.00;;
38581;SDS011;24349;53.720;10.014;2022-09-17T01:58:41;17.75;;;3.42;;
38581;SDS011;24349;53.720;10.014;2022-09-17T02:01:16;17.13;;;3.58;;
38581;SDS011;24349;53.720;10.014;2022-09-17T02:03:50;17.92;;;3.83;;
38581;SDS011;24349;53.720;10.014;2022-09-17T02:06:39;15.90;;;3.00;;
38581;SDS011;24349;53.720;10.014;2022-09-17T02:09:22;19.80;;;3.90;;
38581;SDS011;24349;53.720;10.014;2022-09-17T02:11:55;21.88;;;3.63;;
38581;SDS011;24349;53.720;10.014;2022-09-17T02:14:26;15.10;;;3.10;;
38581;SDS011;24349;53.720;10.014;2022-09-17T02:16:57;18.65;;;2.97;;
38581;SDS011;24349;53.720;10.014;2022-09-17T02:19:28;15.98;;;2.83;;
38581;SDS011;24349;53.720;10.014;2022-09-17T02:30:30;17.08;;;2.78;;
38581;SDS011;24349;53.720;10.014;2022-09-17T02:32:56;14.20;;;2.78;;
38581;SDS011;24349;53.720;10.014;2022-09-17T02:35:22;22.13;;;3.83;;
38581;SDS011;24349;53.720;10.014;2022-09-17T02:37:48;18.88;;;3.65;;
38581;SDS011;24349;53.720;10.014;2022-09-17T02:40:14;20.20;;;3.20;;
38581;SDS011;24349;53.720;10.014;2022-09-17T02:48:16;14.25;;;2.80;;
38581;SDS011;24349;53.720;10.014;2022-09-17T02:51:17;18.05;;;3.25;;
38581;SDS011;24349;53.720;10.014;2022-09-17T02:53:59;19.35;;;3.20;;
38581;SDS011;24349;53.720;10.014;2022-09-17T02:56:47;16.55;;;3.53;;
38581;SDS011;24349;53.720;10.014;2022-09-17T02:59:25;20.75;;;4.18;;
38581;SDS011;24349;53.720;10.014;2022-09-17T03:02:01;14.68;;;2.60;;
38581;SDS011;24349;53.720;10.014;2022-09-17T03:04:35;18.95;;;3.42;;
38581;SDS011;24349;53.720;10.014;2022-09-17T03:07:07;17.55;;;3.65;;
38581;SDS011;24349;53.720;10.014;2022-09-17T03:09:35;17.45;;;3.13;;
38581;SDS011;24349;53.720;10.014;2022-09-17T03:12:02;13.90;;;3.00;;
38581;SDS011;24349;53.720;10.014;2022-09-17T03:14:28;22.67;;;3.40;;
38581;SDS011;24349;53.720;10.014;2022-09-17T03:16:53;18.13;;;3.42;;
38581;SDS011;24349;53.720;10.014;2022-09-17T03:19:19;17.45;;;2.97;;
38581;SDS011;24349;53.720;10.014;2022-09-17T03:21:45;18.33;;;3.45;;
38581;SDS011;24349;53.720;10.014;2022-09-17T03:24:10;15.00;;;3.08;;
38581;SDS011;24349;53.720;10.014;2022-09-17T03:26:37;20.33;;;3.13;;
38581;SDS011;24349;53.720;10.014;2022-09-17T03:29:02;18.92;;;3.75;;
38581;SDS011;24349;53.720;10.014;2022-09-17T03:31:28;15.38;;;3.38;;
38581;SDS011;24349;53.720;10.014;2022-09-17T03:33:54;19.98;;;3.25;;
38581;SDS011;24349;53.720;10.014;2022-09-17T03:36:20;17.63;;;3.47;;
38581;SDS011;24349;53.720;10.014;2022-09-17T03:38:45;19.20;;;3.08;;
38581;SDS011;24349;53.720;10.014;2022-09-17T03:41:11;16.17;;;2.95;;
38581;SDS011;24349;53.720;10.014;2022-09-17T03:43:37;14.20;;;2.90;;
38581;SDS011;24349;53.720;10.014;2022-09-17T03:46:04;18.67;;;3.38;;
38581;SDS011;24349;53.720;10.014;2022-09-17T03:48:30;18.15;;;3.13;;
38581;SDS011;24349;53.720;10.014;2022-09-17T03:50:56;15.95;;;2.50;;
38581;SDS011;24349;53.720;10.014;2022-09-17T03:53:22;16.15;;;3.40;;
38581;SDS011;24349;53.720;10.014;2022-09-17T03:55:48;17.48;;;2.90;;
38581;SDS011;24349;53.720;10.014;2022-09-17T03:58:14;17.75;;;3.47;;
38581;SDS011;24349;53.720;10.014;2022-09-17T04:00:39;16.92;;;3.10;;
38581;SDS011;24349;53.720;10.014;2022-09-17T04:03:07;12.10;;;2.60;;
38581;SDS011;24349;53.720;10.014;2022-09-17T04:05:32;14.13;;;3.05;;
38581;SDS011;24349;53.720;10.014;2022-09-17T04:07:58;18.95;;;3.25;;
38581;SDS011;24349;53.720;10.014;2022-09-17T04:10:23;20.45;;;3.25;;
38581;SDS011;24349;53.720;10.014;2022-09-17T04:12:49;18.92;;;3.33;;
38581;SDS011;24349;53.720;10.014;2022-09-17T04:15:15;19.67;;;3.42;;
38581;SDS011;24349;53.720;10.014;2022-09-17T04:17:41;20.42;;;3.75;;
38581;SDS011;24349;53.720;10.014;2022-09-17T04:20:06;15.02;;;2.70;;
38581;SDS011;24349;53.720;10.014;2022-09-17T04:22:32;16.23;;;2.97;;
38581;SDS011;24349;53.720;10.014;2022-09-17T04:24:58;18.70;;;3.33;;
38581;SDS011;24349;53.720;10.014;2022-09-17T04:27:24;17.35;;;3.78;;
38581;SDS011;24349;53.720;10.014;2022-09-17T04:29:49;21.15;;;3.33;;
38581;SDS011;24349;53.720;10.014;2022-09-17T04:32:15;19.30;;;3.85;;
38581;SDS011;24349;53.720;10.014;2022-09-17T04:34:41;19.67;;;3.10;;
38581;SDS011;24349;53.720;10.014;2022-09-17T04:37:06;16.60;;;3.03;;
38581;SDS011;24349;53.720;10.014;2022-09-17T04:39:32;15.82;;;3.40;;
38581;SDS011;24349;53.720;10.014;2022-09-17T04:41:58;19.45;;;3.70;;
38581;SDS011;24349;53.720;10.014;2022-09-17T04:44:23;19.45;;;3.58;;
38581;SDS011;24349;53.720;10.014;2022-09-17T04:46:49;20.40;;;3.42;;
38581;SDS011;24349;53.720;10.014;2022-09-17T04:49:15;16.05;;;2.88;;
38581;SDS011;24349;53.720;10.014;2022-09-17T04:51:41;20.80;;;3.15;;
38581;SDS011;24349;53.720;10.014;2022-09-17T04:54:06;17.63;;;3.85;;
38581;SDS011;24349;53.720;10.014;2022-09-17T04:56:32;16.58;;;3.38;;
38581;SDS011;24349;53.720;10.014;2022-09-17T04:58:58;18.15;;;3.08;;
38581;SDS011;24349;53.720;10.014;2022-09-17T05:01:23;19.23;;;3.33;;
38581;SDS011;24349;53.720;10.014;2022-09-17T05:03:49;15.95;;;2.88;;
38581;SDS011;24349;53.720;10.014;2022-09-17T05:06:15;15.02;;;3.00;;
38581;SDS011;24349;53.720;10.014;2022-09-17T05:08:40;14.13;;;2.63;;
38581;SDS011;24349;53.720;10.014;2022-09-17T05:11:06;17.52;;;3.05;;
38581;SDS011;24349;53.720;10.014;2022-09-17T05:13:32;15.40;;;3.13;;
38581;SDS011;24349;53.720;10.014;2022-09-17T05:15:57;17.27;;;3.45;;
38581;SDS011;24349;53.720;10.014;2022-09-17T05:18:23;21.13;;;3.08;;
38581;SDS011;24349;53.720;10.014;2022-09-17T05:20:50;16.52;;;3.05;;
38581;SDS011;24349;53.720;10.014;2022-09-17T05:23:15;16.20;;;2.88;;
38581;SDS011;24349;53.720;10.014;2022-09-17T05:25:41;16.88;;;3.38;;
38581;SDS011;24349;53.720;10.014;2022-09-17T05:28:07;17.50;;;3.67;;
38581;SDS011;24349;53.720;10.014;2022-09-17T05:30:36;13.65;;;2.60;;
38581;SDS011;24349;53.720;10.014;2022-09-17T05:33:04;13.82;;;2.97;;
38581;SDS011;24349;53.720;10.014;2022-09-17T05:35:31;18.83;;;3.10;;
38581;SDS011;24349;53.720;10.014;2022-09-17T05:37:58;18.02;;;3.58;;
38581;SDS011;24349;53.720;10.014;2022-09-17T05:40:28;14.63;;;2.75;;
38581;SDS011;24349;53.720;10.014;2022-09-17T05:42:58;19.13;;;3.28;;
38581;SDS011;24349;53.720;10.014;2022-09-17T05:45:25;23.00;;;3.33;;
38581;SDS011;24349;53.720;10.014;2022-09-17T05:47:57;17.30;;;3.30;;
38581;SDS011;24349;53.720;10.014;2022-09-17T05:50:24;16.95;;;2.90;;
38581;SDS011;24349;53.720;10.014;2022-09-17T05:52:50;19.02;;;3.45;;
38581;SDS011;24349;53.720;10.014;2022-09-17T05:55:17;15.80;;;2.92;;
38581;SDS011;24349;53.720;10.014;2022-09-17T05:57:44;16.10;;;3.13;;
38581;SDS011;24349;53.720;10.014;2022-09-17T06:00:10;17.55;;;3.03;;
38581;SDS011;24349;53.720;10.014;2022-09-17T06:02:36;15.98;;;3.35;;
38581;SDS011;24349;53.720;10.014;2022-09-17T06:05:03;16.02;;;3.30;;
38581;SDS011;24349;53.720;10.014;2022-09-17T06:07:29;16.70;;;3.75;;
38581;SDS011;24349;53.720;10.014;2022-09-17T06:09:55;17.00;;;3.78;;
38581;SDS011;24349;53.720;10.014;2022-09-17T06:12:21;18.52;;;3.13;;
38581;SDS011;24349;53.720;10.014;2022-09-17T06:14:46;16.23;;;3.10;;
38581;SDS011;24349;53.720;10.014;2022-09-17T06:17:12;11.10;;;2.75;;
38581;SDS011;24349;53.720;10.014;2022-09-17T06:19:38;15.40;;;3.00;;
38581;SDS011;24349;53.720;10.014;2022-09-17T06:22:04;16.40;;;2.70;;
38581;SDS011;24349;53.720;10.014;2022-09-17T06:24:30;16.42;;;2.90;;
38581;SDS011;24349;53.720;10.014;2022-09-17T06:26:56;9.15;;;2.33;;
38581;SDS011;24349;53.720;10.014;2022-09-17T06:29:22;14.88;;;2.80;;
38581;SDS011;24349;53.720;10.014;2022-09-17T06:31:48;16.48;;;3.38;;
38581;SDS011;24349;53.720;10.014;2022-09-17T06:34:14;11.95;;;2.58;;
38581;SDS011;24349;53.720;10.014;2022-09-17T06:36:40;14.15;;;2.72;;
38581;SDS011;24349;53.720;10.014;2022-09-17T06:39:06;11.32;;;2.20;;
38581;SDS011;24349;53.720;10.014;2022-09-17T06:41:31;16.08;;;2.53;;
38581;SDS011;24349;53.720;10.014;2022-09-17T06:43:57;15.23;;;2.88;;
38581;SDS011;24349;53.720;10.014;2022-09-17T06:46:23;13.07;;;2.35;;
38581;SDS011;24349;53.720;10.014;2022-09-17T06:48:49;10.23;;;2.58;;
38581;SDS011;24349;53.720;10.014;2022-09-17T06:51:14;10.23;;;1.90;;
38581;SDS011;24349;53.720;10.014;2022-09-17T06:53:40;9.98;;;1.90;;
38581;SDS011;24349;53.720;10.014;2022-09-17T06:56:06;7.53;;;1.65;;
38581;SDS011;24349;53.720;10.014;2022-09-17T06:58:34;8.40;;;1.70;;
38581;SDS011;24349;53.720;10.014;2022-09-17T07:01:07;10.95;;;2.13;;
38581;SDS011;24349;53.720;10.014;2022-09-17T07:03:34;9.80;;;2.15;;
38581;SDS011;24349;53.720;10.014;2022-09-17T07:06:00;7.20;;;2.17;;
38581;SDS011;24349;53.720;10.014;2022-09-17T07:08:26;8.93;;;2.42;;
38581;SDS011;24349;53.720;10.014;2022-09-17T07:10:55;11.02;;;2.47;;
38581;SDS011;24349;53.720;10.014;2022-09-17T07:13:21;6.70;;;1.50;;
38581;SDS011;24349;53.720;10.014;2022-09-17T07:15:53;7.45;;;1.40;;
38581;SDS011;24349;53.720;10.014;2022-09-17T07:18:20;10.02;;;1.80;;
38581;SDS011;24349;53.720;10.014;2022-09-17T07:20:56;5.63;;;1.27;;
38581;SDS011;24349;53.720;10.014;2022-09-17T07:23:24;7.00;;;1.70;;
38581;SDS011;24349;53.720;10.014;2022-09-17T07:25:55;5.88;;;1.25;;
38581;SDS011;24349;53.720;10.014;2022-09-17T07:28:22;5.57;;;1.33;;
38581;SDS011;24349;53.720;10.014;2022-09-17T07:30:49;6.22;;;1.30;;
38581;SDS011;24349;53.720;10.014;2022-09-17T07:33:16;5.03;;;1.20;;
38581;SDS011;24349;53.720;10.014;2022-09-17T07:35:53;6.65;;;1.50;;
38581;SDS011;24349;53.720;10.014;2022-09-17T07:38:20;4.95;;;1.20;;
38581;SDS011;24349;53.720;10.014;2022-09-17T07:40:56;5.85;;;1.33;;
38581;SDS011;24349;53.720;10.014;2022-09-17T07:43:27;6.53;;;1.45;;
38581;SDS011;24349;53.720;10.014;2022-09-17T07:45:55;6.88;;;1.27;;
38581;SDS011;24349;53.720;10.014;2022-09-17T07:48:22;5.72;;;1.33;;
38581;SDS011;24349;53.720;10.014;2022-09-17T07:50:48;6.63;;;1.40;;
38581;SDS011;24349;53.720;10.014;2022-09-17T07:53:14;5.15;;;1.17;;
38581;SDS011;24349;53.720;10.014;2022-09-17T07:55:40;8.02;;;1.55;;
38581;SDS011;24349;53.720;10.014;2022-09-17T07:58:06;4.47;;;1.10;;
38581;SDS011;24349;53.720;10.014;2022-09-17T08:00:31;7.43;;;2.10;;
38581;SDS011;24349;53.720;10.014;2022-09-17T08:02:58;6.20;;;1.60;;
38581;SDS011;24349;53.720;10.014;2022-09-17T08:05:24;7.45;;;1.50;;
38581;SDS011;24349;53.720;10.014;2022-09-17T08:07:50;7.97;;;1.73;;
38581;SDS011;24349;53.720;10.014;2022-09-17T08:10:16;5.13;;;1.40;;
38581;SDS011;24349;53.720;10.014;2022-09-17T08:12:50;7.25;;;1.52;;
38581;SDS011;24349;53.720;10.014;2022-09-17T08:15:19;5.88;;;1.50;;
38581;SDS011;24349;53.720;10.014;2022-09-17T08:17:45;10.00;;;2.17;;
38581;SDS011;24349;53.720;10.014;2022-09-17T08:20:12;8.18;;;1.70;;
38581;SDS011;24349;53.720;10.014;2022-09-17T08:22:38;7.55;;;1.58;;
38581;SDS011;24349;53.720;10.014;2022-09-17T08:25:05;7.07;;;1.70;;
38581;SDS011;24349;53.720;10.014;2022-09-17T08:27:31;7.40;;;1.15;;
38581;SDS011;24349;53.720;10.014;2022-09-17T08:29:58;5.32;;;1.60;;
38581;SDS011;24349;53.720;10.014;2022-09-17T08:32:24;6.20;;;1.90;;
38581;SDS011;24349;53.720;10.014;2022-09-17T08:34:50;8.48;;;1.85;;
38581;SDS011;24349;53.720;10.014;2022-09-17T08:37:18;6.43;;;1.80;;
38581;SDS011;24349;53.720;10.014;2022-09-17T08:39:44;7.35;;;1.70;;
38581;SDS011;24349;53.720;10.014;2022-09-17T08:45:03;5.93;;;1.52;;
38581;SDS011;24349;53.720;10.014;2022-09-17T08:47:36;9.13;;;1.85;;
38581;SDS011;24349;53.720;10.014;2022-09-17T08:50:12;7.22;;;1.73;;
38581;SDS011;24349;53.720;10.014;2022-09-17T08:55:45;6.15;;;1.45;;
38581;SDS011;24349;53.720;10.014;2022-09-17T08:58:24;10.43;;;2.35;;
38581;SDS011;24349;53.720;10.014;2022-09-17T09:06:33;6.05;;;1.45;;
38581;SDS011;24349;53.720;10.014;2022-09-17T09:09:03;8.05;;;1.60;;
38581;SDS011;24349;53.720;10.014;2022-09-17T09:14:10;7.88;;;1.45;;
38581;SDS011;24349;53.720;10.014;2022-09-17T09:16:40;8.23;;;1.80;;
38581;SDS011;24349;53.720;10.014;2022-09-17T09:24:51;7.90;;;1.50;;
38581;SDS011;24349;53.720;10.014;2022-09-17T09:27:43;9.23;;;1.60;;
38581;SDS011;24349;53.720;10.014;2022-09-17T09:30:53;5.20;;;1.10;;
38581;SDS011;24349;53.720;10.014;2022-09-17T09:33:24;4.28;;;1.15;;
38581;SDS011;24349;53.720;10.014;2022-09-17T09:35:54;3.95;;;1.20;;
38581;SDS011;24349;53.720;10.014;2022-09-17T09:38:36;5.05;;;1.05;;
38581;SDS011;24349;53.720;10.014;2022-09-17T09:41:13;3.17;;;0.80;;
38581;SDS011;24349;53.720;10.014;2022-09-17T09:43:44;4.32;;;1.05;;
38581;SDS011;24349;53.720;10.014;2022-09-17T09:54:24;5.18;;;1.08;;
38581;SDS011;24349;53.720;10.014;2022-09-17T09:56:59;5.28;;;1.13;;
38581;SDS011;24349;53.720;10.014;2022-09-17T09:59:31;3.67;;;1.00;;
38581;SDS011;24349;53.720;10.014;2022-09-17T10:01:59;4.45;;;1.00;;
38581;SDS011;24349;53.720;10.014;2022-09-17T10:04:26;4.07;;;0.98;;
38581;SDS011;24349;53.720;10.014;2022-09-17T10:07:06;3.50;;;1.00;;
38581;SDS011;24349;53.720;10.014;2022-09-17T10:09:35;5.13;;;1.33;;
38581;SDS011;24349;53.720;10.014;2022-09-17T10:14:35;5.00;;;1.15;;
38581;SDS011;24349;53.720;10.014;2022-09-17T10:19:40;4.82;;;1.30;;
38581;SDS011;24349;53.720;10.014;2022-09-17T10:22:21;4.47;;;1.30;;
38581;SDS011;24349;53.720;10.014;2022-09-17T10:24:51;5.93;;;1.40;;
38581;SDS011;24349;53.720;10.014;2022-09-17T10:27:20;7.10;;;1.67;;
38581;SDS011;24349;53.720;10.014;2022-09-17T10:29:48;5.55;;;1.30;;
38581;SDS011;24349;53.720;10.014;2022-09-17T10:32:18;6.05;;;1.80;;
38581;SDS011;24349;53.720;10.014;2022-09-17T10:35:23;6.57;;;1.40;;
38581;SDS011;24349;53.720;10.014;2022-09-17T10:37:41;6.90;;;1.42;;
38581;SDS011;24349;53.720;10.014;2022-09-17T10:42:45;7.18;;;1.40;;
38581;SDS011;24349;53.720;10.014;2022-09-17T10:47:50;7.20;;;1.40;;
38581;SDS011;24349;53.720;10.014;2022-09-17T10:50:18;5.32;;;1.40;;
38581;SDS011;24349;53.720;10.014;2022-09-17T10:52:49;6.82;;;1.40;;
38581;SDS011;24349;53.720;10.014;2022-09-17T10:55:30;7.78;;;1.58;;
38581;SDS011;24349;53.720;10.014;2022-09-17T10:58:08;5.90;;;1.40;;
38581;SDS011;24349;53.720;10.014;2022-09-17T11:09:55;8.98;;;2.30;;
38581;SDS011;24349;53.720;10.014;2022-09-17T11:12:44;7.00;;;1.98;;
38581;SDS011;24349;53.720;10.014;2022-09-17T11:18:12;8.23;;;1.50;;
38581;SDS011;24349;53.720;10.014;2022-09-17T11:34:40;4.68;;;1.10;;
38581;SDS011;24349;53.720;10.014;2022-09-17T11:37:27;5.00;;;1.35;;
38581;SDS011;24349;53.720;10.014;2022-09-17T11:40:05;3.78;;;1.23;;
38581;SDS011;24349;53.720;10.014;2022-09-17T11:47:59;5.05;;;1.50;;
38581;SDS011;24349;53.720;10.014;2022-09-17T11:55:39;5.53;;;1.30;;
38581;SDS011;24349;53.720;10.014;2022-09-17T11:58:39;6.05;;;1.60;;
38581;SDS011;24349;53.720;10.014;2022-09-17T12:04:23;5.60;;;1.63;;
38581;SDS011;24349;53.720;10.014;2022-09-17T12:09:39;6.53;;;1.80;;
38581;SDS011;24349;53.720;10.014;2022-09-17T12:12:17;5.43;;;1.60;;
38581;SDS011;24349;53.720;10.014;2022-09-17T12:14:49;4.93;;;1.35;;
38581;SDS011;24349;53.720;10.014;2022-09-17T12:17:27;7.38;;;1.73;;
38581;SDS011;24349;53.720;10.014;2022-09-17T12:20:06;7.57;;;2.05;;
38581;SDS011;24349;53.720;10.014;2022-09-17T12:22:44;6.82;;;1.77;;
38581;SDS011;24349;53.720;10.014;2022-09-17T12:25:13;8.57;;;2.00;;
38581;SDS011;24349;53.720;10.014;2022-09-17T12:30:27;7.68;;;1.75;;
38581;SDS011;24349;53.720;10.014;2022-09-17T12:33:09;7.03;;;1.63;;
38581;SDS011;24349;53.720;10.014;2022-09-17T12:38:40;8.25;;;2.00;;
38581;SDS011;24349;53.720;10.014;2022-09-17T12:43:45;8.55;;;1.88;;
38581;SDS011;24349;53.720;10.014;2022-09-17T12:49:13;7.18;;;1.70;;
38581;SDS011;24349;53.720;10.014;2022-09-17T12:52:00;8.35;;;2.00;;
38581;SDS011;24349;53.720;10.014;2022-09-17T12:57:09;10.13;;;2.22;;
38581;SDS011;24349;53.720;10.014;2022-09-17T12:59:59;6.75;;;1.63;;
38581;SDS011;24349;53.720;10.014;2022-09-17T13:22:14;4.40;;;1.30;;
38581;SDS011;24349;53.720;10.014;2022-09-17T13:24:42;5.38;;;1.45;;
38581;SDS011;24349;53.720;10.014;2022-09-17T13:27:22;4.45;;;1.20;;
38581;SDS011;24349;53.720;10.014;2022-09-17T13:37:36;6.93;;;1.30;;
38581;SDS011;24349;53.720;10.014;2022-09-17T13:40:03;4.85;;;1.17;;
38581;SDS011;24349;53.720;10.014;2022-09-17T13:42:43;9.63;;;2.00;;
38581;SDS011;24349;53.720;10.014;2022-09-17T13:45:13;8.77;;;1.83;;
38581;SDS011;24349;53.720;10.014;2022-09-17T13:48:02;6.43;;;1.63;;
38581;SDS011;24349;53.720;10.014;2022-09-17T13:50:36;3.83;;;1.15;;
38581;SDS011;24349;53.720;10.014;2022-09-17T13:55:48;3.50;;;1.20;;
38581;SDS011;24349;53.720;10.014;2022-09-17T14:00:52;4.03;;;1.20;;
38581;SDS011;24349;53.720;10.014;2022-09-17T14:13:48;7.05;;;1.40;;
38581;SDS011;24349;53.720;10.014;2022-09-17T14:22:00;2.75;;;1.00;;
38581;SDS011;24349;53.720;10.014;2022-09-17T14:32:35;2.78;;;0.70;;
38581;SDS011;24349;53.720;10.014;2022-09-17T14:35:40;2.80;;;0.80;;
38581;SDS011;24349;53.720;10.014;2022-09-17T14:40:52;3.15;;;0.70;;
38581;SDS011;24349;53.720;10.014;2022-09-17T14:46:26;4.18;;;1.15;;
38581;SDS011;24349;53.720;10.014;2022-09-17T14:51:58;4.25;;;1.10;;
38581;SDS011;24349;53.720;10.014;2022-09-17T14:54:30;2.50;;;1.02;;
38581;SDS011;24349;53.720;10.014;2022-09-17T14:59:41;3.97;;;1.17;;
38581;SDS011;24349;53.720;10.014;2022-09-17T15:05:23;5.93;;;1.20;;
38581;SDS011;24349;53.720;10.014;2022-09-17T15:10:44;4.90;;;1.25;;
38581;SDS011;24349;53.720;10.014;2022-09-17T15:18:39;5.50;;;1.08;;
38581;SDS011;24349;53.720;10.014;2022-09-17T15:21:15;7.13;;;1.40;;
38581;SDS011;24349;53.720;10.014;2022-09-17T15:23:47;7.20;;;1.30;;
38581;SDS011;24349;53.720;10.014;2022-09-17T15:26:14;6.00;;;1.30;;
38581;SDS011;24349;53.720;10.014;2022-09-17T15:28:47;5.53;;;1.40;;
38581;SDS011;24349;53.720;10.014;2022-09-17T15:31:15;7.57;;;2.00;;
38581;SDS011;24349;53.720;10.014;2022-09-17T15:33:43;7.10;;;1.80;;
38581;SDS011;24349;53.720;10.014;2022-09-17T15:38:48;3.50;;;1.00;;
38581;SDS011;24349;53.720;10.014;2022-09-17T15:41:20;3.50;;;1.20;;
38581;SDS011;24349;53.720;10.014;2022-09-17T15:44:05;4.90;;;1.42;;
38581;SDS011;24349;53.720;10.014;2022-09-17T15:46:32;4.07;;;1.27;;
38581;SDS011;24349;53.720;10.014;2022-09-17T15:48:58;5.82;;;1.10;;
38581;SDS011;24349;53.720;10.014;2022-09-17T15:53:54;4.72;;;1.20;;
38581;SDS011;24349;53.720;10.014;2022-09-17T15:56:27;3.58;;;0.95;;
38581;SDS011;24349;53.720;10.014;2022-09-17T15:58:59;5.28;;;1.08;;
38581;SDS011;24349;53.720;10.014;2022-09-17T16:04:18;3.88;;;1.05;;
38581;SDS011;24349;53.720;10.014;2022-09-17T16:06:56;3.47;;;0.95;;
38581;SDS011;24349;53.720;10.014;2022-09-17T16:09:35;2.70;;;0.95;;
38581;SDS011;24349;53.720;10.014;2022-09-17T16:12:06;3.17;;;0.90;;
38581;SDS011;24349;53.720;10.014;2022-09-17T16:14:32;3.40;;;0.90;;
38581;SDS011;24349;53.720;10.014;2022-09-17T16:16:58;3.22;;;0.90;;
38581;SDS011;24349;53.720;10.014;2022-09-17T16:19:40;3.75;;;1.15;;
38581;SDS011;24349;53.720;10.014;2022-09-17T16:22:06;4.55;;;1.20;;
38581;SDS011;24349;53.720;10.014;2022-09-17T16:24:32;3.40;;;1.27;;
38581;SDS011;24349;53.720;10.014;2022-09-17T16:26:57;3.75;;;1.20;;
38581;SDS011;24349;53.720;10.014;2022-09-17T16:29:23;4.93;;;1.15;;
38581;SDS011;24349;53.720;10.014;2022-09-17T16:31:48;4.20;;;1.20;;
38581;SDS011;24349;53.720;10.014;2022-09-17T16:34:15;4.57;;;1.52;;
38581;SDS011;24349;53.720;10.014;2022-09-17T16:36:41;6.53;;;1.30;;
38581;SDS011;24349;53.720;10.014;2022-09-17T16:39:07;5.65;;;1.60;;
38581;SDS011;24349;53.720;10.014;2022-09-17T16:41:32;3.80;;;1.08;;
38581;SDS011;24349;53.720;10.014;2022-09-17T16:43:58;5.75;;;1.27;;
38581;SDS011;24349;53.720;10.014;2022-09-17T16:46:24;4.95;;;1.23;;
38581;SDS011;24349;53.720;10.014;2022-09-17T16:48:49;4.28;;;1.25;;
38581;SDS011;24349;53.720;10.014;2022-09-17T16:51:15;6.90;;;1.77;;
38581;SDS011;24349;53.720;10.014;2022-09-17T16:53:41;7.32;;;1.63;;
38581;SDS011;24349;53.720;10.014;2022-09-17T16:56:07;5.70;;;1.58;;
38581;SDS011;24349;53.720;10.014;2022-09-17T16:58:34;7.95;;;1.90;;
38581;SDS011;24349;53.720;10.014;2022-09-17T17:01:07;10.00;;;3.35;;
38581;SDS011;24349;53.720;10.014;2022-09-17T17:03:33;7.60;;;2.35;;
38581;SDS011;24349;53.720;10.014;2022-09-17T17:05:59;7.15;;;2.17;;
38581;SDS011;24349;53.720;10.014;2022-09-17T17:08:25;12.90;;;5.43;;
38581;SDS011;24349;53.720;10.014;2022-09-17T17:10:51;23.05;;;10.45;;
38581;SDS011;24349;53.720;10.014;2022-09-17T17:13:17;11.10;;;4.50;;
38581;SDS011;24349;53.720;10.014;2022-09-17T17:15:42;8.10;;;2.85;;
38581;SDS011;24349;53.720;10.014;2022-09-17T17:18:08;14.75;;;5.95;;
38581;SDS011;24349;53.720;10.014;2022-09-17T17:20:34;9.57;;;3.10;;
38581;SDS011;24349;53.720;10.014;2022-09-17T17:23:00;7.10;;;2.22;;
38581;SDS011;24349;53.720;10.014;2022-09-17T17:25:26;10.73;;;2.72;;
38581;SDS011;24349;53.720;10.014;2022-09-17T17:27:52;11.35;;;3.80;;
38581;SDS011;24349;53.720;10.014;2022-09-17T17:30:18;7.70;;;2.92;;
38581;SDS011;24349;53.720;10.014;2022-09-17T17:32:46;8.93;;;3.05;;
38581;SDS011;24349;53.720;10.014;2022-09-17T17:35:14;9.13;;;2.10;;
38581;SDS011;24349;53.720;10.014;2022-09-17T17:37:40;7.35;;;3.15;;
38581;SDS011;24349;53.720;10.014;2022-09-17T17:40:05;7.03;;;2.42;;
38581;SDS011;24349;53.720;10.014;2022-09-17T17:42:35;7.32;;;2.55;;
38581;SDS011;24349;53.720;10.014;2022-09-17T17:45:06;7.28;;;2.78;;
38581;SDS011;24349;53.720;10.014;2022-09-17T17:47:32;6.63;;;1.60;;
38581;SDS011;24349;53.720;10.014;2022-09-17T17:49:58;7.75;;;2.05;;
38581;SDS011;24349;53.720;10.014;2022-09-17T17:52:24;5.88;;;1.90;;
38581;SDS011;24349;53.720;10.014;2022-09-17T17:54:49;8.45;;;2.53;;
38581;SDS011;24349;53.720;10.014;2022-09-17T17:57:15;6.25;;;1.85;;
38581;SDS011;24349;53.720;10.014;2022-09-17T17:59:41;5.82;;;2.28;;
38581;SDS011;24349;53.720;10.014;2022-09-17T18:02:06;5.07;;;1.58;;
38581;SDS011;24349;53.720;10.014;2022-09-17T18:04:33;7.22;;;2.53;;
38581;SDS011;24349;53.720;10.014;2022-09-17T18:06:59;7.82;;;2.40;;
38581;SDS011;24349;53.720;10.014;2022-09-17T18:09:24;5.55;;;2.15;;
38581;SDS011;24349;53.720;10.014;2022-09-17T18:11:50;8.15;;;2.00;;
38581;SDS011;24349;53.720;10.014;2022-09-17T18:14:15;9.20;;;2.20;;
38581;SDS011;24349;53.720;10.014;2022-09-17T18:16:41;7.15;;;1.83;;
38581;SDS011;24349;53.720;10.014;2022-09-17T18:19:10;6.07;;;1.60;;
38581;SDS011;24349;53.720;10.014;2022-09-17T18:21:36;6.78;;;2.10;;
38581;SDS011;24349;53.720;10.014;2022-09-17T18:24:02;9.57;;;2.50;;
38581;SDS011;24349;53.720;10.014;2022-09-17T18:26:28;7.68;;;2.10;;
38581;SDS011;24349;53.720;10.014;2022-09-17T18:28:55;6.10;;;2.28;;
38581;SDS011;24349;53.720;10.014;2022-09-17T18:31:28;7.45;;;2.30;;